Time;durP1;ratioP1;P1;durP2;ratioP2;P2;SDS_P1;SDS_P2;PMS_P1;PMS_P2;Temp;Humidity;BMP_temperature;BMP_pressure;BME280_temperature;BME280_humidity;BME280_pressure;Samples;Min_cycle;Max_cycle;Signal;HPM_P1;HPM_P2
2023/07/20 00:00:40;;;;;;;;;;;25.80;38.40;;;;;;1556083;74;668;-55
2023/07/20 00:02:42;;;;;;;;;;;25.70;38.60;;;;;;1560254;74;760;-55
2023/07/20 00:04:44;;;;;;;;;;;25.80;38.60;;;;;;1555054;74;1904;-54
2023/07/20 00:06:46;;;;;;;;;;;25.80;38.60;;;;;;1554194;74;1123;-56
2023/07/20 00:08:48;;;;;;;;;;;25.80;38.60;;;;;;1555496;75;1452;-56
2023/07/20 00:10:50;;;;;;;;;;;25.80;38.70;;;;;;1563534;76;939;-56
2023/07/20 00:12:52;;;;;;;;;;;25.80;38.60;;;;;;1563150;75;769;-56
2023/07/20 00:14:54;;;;;;;;;;;25.80;38.70;;;;;;1557096;75;809;-56
2023/07/20 00:16:56;;;;;;;;;;;25.80;38.70;;;;;;1556901;75;707;-55
2023/07/20 00:18:58;;;;;;;;;;;25.80;38.80;;;;;;1552228;76;1263;-56
2023/07/20 00:21:00;;;;;;;;;;;25.80;38.70;;;;;;1553320;76;783;-56
2023/07/20 00:23:02;;;;;;;;;;;25.70;38.80;;;;;;1559764;76;1346;-53
2023/07/20 00:25:04;;;;;;;;;;;25.80;38.80;;;;;;1553385;75;1905;-57
2023/07/20 00:27:06;;;;;;;;;;;25.80;38.70;;;;;;1558713;76;735;-56
2023/07/20 00:29:08;;;;;;;;;;;25.80;38.70;;;;;;1552298;74;1161;-56
2023/07/20 00:31:10;;;;;;;;;;;25.80;38.90;;;;;;1551965;74;829;-56
2023/07/20 00:33:12;;;;;;;;;;;25.70;38.90;;;;;;1558456;74;748;-55
2023/07/20 00:35:14;;;;;;;;;;;25.70;38.80;;;;;;1564264;76;816;-56
2023/07/20 00:37:15;;;;;;;;;;;25.80;38.80;;;;;;1549057;75;1666;-56
2023/07/20 00:39:17;;;;;;;;;;;25.80;38.80;;;;;;1561382;76;1145;-56
2023/07/20 00:41:19;;;;;;;;;;;25.70;38.70;;;;;;1548850;75;732;-57
2023/07/20 00:43:21;;;;;;;;;;;25.80;38.80;;;;;;1548335;76;740;-57
2023/07/20 00:45:23;;;;;;;;;;;25.70;38.90;;;;;;1544013;75;1933;-56
2023/07/20 00:47:25;;;;;;;;;;;25.70;38.90;;;;;;1554490;76;748;-57
2023/07/20 00:49:27;;;;;;;;;;;25.80;38.90;;;;;;1546253;76;1140;-56
2023/07/20 00:51:28;;;;;;;;;;;25.80;38.90;;;;;;1559290;74;1646;-56
2023/07/20 00:53:30;;;;;;;;;;;25.70;38.90;;;;;;1555744;76;826;-55
2023/07/20 00:55:32;;;;;;;;;;;25.70;38.80;;;;;;1560423;75;734;-57
2023/07/20 00:57:34;;;;;;;;;;;25.80;38.80;;;;;;1555938;75;738;-56
2023/07/20 00:59:36;;;;;;;;;;;25.70;38.80;;;;;;1547742;75;1151;-56
2023/07/20 01:01:38;;;;;;;;;;;25.70;38.70;;;;;;1543804;75;703;-55
2023/07/20 01:03:40;;;;;;;;;;;25.70;38.70;;;;;;1546527;75;1931;-56
2023/07/20 01:05:49;;;;;;;;;;;25.70;38.60;;;;;;1552421;74;1070;-57
2023/07/20 01:07:56;;;;;;;;;;;25.70;38.40;;;;;;1565104;74;668;-56
2023/07/20 01:10:05;;;;;;;;;;;25.70;38.40;;;;;;1561229;75;1169;-57
2023/07/20 01:12:14;;;;;;;;;;;25.70;38.50;;;;;;1560314;75;1169;-56
2023/07/20 01:14:16;;;;;;;;;;;25.70;38.50;;;;;;1548206;75;794;-57
2023/07/20 01:16:18;;;;;;;;;;;25.70;38.30;;;;;;1555078;75;934;-56
2023/07/20 01:18:20;;;;;;;;;;;25.70;38.20;;;;;;1556778;75;713;-55
2023/07/20 01:20:23;;;;;;;;;;;25.70;38.10;;;;;;1568346;75;1129;-57
2023/07/20 01:22:35;;;;;;;;;;;25.70;38.00;;;;;;1564534;75;728;-55
2023/07/20 01:24:45;;;;;;;;;;;25.70;37.90;;;;;;1532956;75;1932;-54
2023/07/20 01:27:05;;;;;;;;;;;25.70;38.00;;;;;;1550215;75;619;-56
2023/07/20 01:29:14;;;;;;;;;;;25.70;38.00;;;;;;1559812;75;1155;-55
2023/07/20 01:31:18;;;;;;;;;;;25.60;38.10;;;;;;1555614;74;733;-56
2023/07/20 01:33:20;;;;;;;;;;;25.60;38.20;;;;;;1557717;75;666;-54
2023/07/20 01:35:22;;;;;;;;;;;25.70;38.10;;;;;;1549966;75;745;-54
2023/07/20 01:37:27;;;;;;;;;;;25.70;38.20;;;;;;1548000;75;661;-54
2023/07/20 01:39:27;;;;;;;;;;;25.70;38.20;;;;;;1554279;75;1183;-53
2023/07/20 01:41:29;;;;;;;;;;;25.60;38.30;;;;;;1551856;75;748;-55
2023/07/20 01:43:31;;;;;;;;;;;25.70;38.30;;;;;;1561650;75;804;-56
2023/07/20 01:45:33;;;;;;;;;;;25.60;38.30;;;;;;1558908;75;1924;-55
2023/07/20 01:47:34;;;;;;;;;;;25.70;38.40;;;;;;1549815;75;731;-56
2023/07/20 01:49:36;;;;;;;;;;;25.60;38.40;;;;;;1555726;75;1153;-55
2023/07/20 01:51:38;;;;;;;;;;;25.60;38.40;;;;;;1560287;74;674;-56
2023/07/20 01:53:40;;;;;;;;;;;25.70;38.30;;;;;;1553076;74;776;-56
2023/07/20 01:55:42;;;;;;;;;;;25.70;38.40;;;;;;1558212;74;762;-56
2023/07/20 01:57:44;;;;;;;;;;;25.60;38.30;;;;;;1560697;75;686;-55
2023/07/20 01:59:46;;;;;;;;;;;25.70;38.30;;;;;;1557763;75;1161;-55
2023/07/20 02:01:48;;;;;;;;;;;25.70;38.60;;;;;;1561459;75;780;-55
2023/07/20 02:03:50;;;;;;;;;;;25.60;38.60;;;;;;1567684;74;1551;-56
2023/07/20 02:05:51;;;;;;;;;;;25.70;38.60;;;;;;1563624;75;1939;-53
2023/07/20 02:07:53;;;;;;;;;;;25.60;38.50;;;;;;1545649;75;1178;-56
2023/07/20 02:09:55;;;;;;;;;;;25.60;38.50;;;;;;1546232;75;1195;-56
2023/07/20 02:11:57;;;;;;;;;;;25.60;38.40;;;;;;1551585;75;900;-55
2023/07/20 02:13:59;;;;;;;;;;;25.60;38.40;;;;;;1553843;75;742;-54
2023/07/20 02:16:01;;;;;;;;;;;25.60;38.30;;;;;;1550041;75;747;-56
2023/07/20 02:18:03;;;;;;;;;;;25.60;38.40;;;;;;1555920;74;793;-56
2023/07/20 02:20:08;;;;;;;;;;;25.70;38.30;;;;;;1552992;75;1169;-56
2023/07/20 02:22:09;;;;;;;;;;;25.60;38.30;;;;;;1547851;75;1007;-56
2023/07/20 02:24:12;;;;;;;;;;;25.70;38.40;;;;;;1558865;75;1914;-56
2023/07/20 02:26:14;;;;;;;;;;;25.70;38.40;;;;;;1563163;74;852;-54
2023/07/20 02:28:16;;;;;;;;;;;25.70;38.30;;;;;;1552463;75;752;-54
2023/07/20 02:30:18;;;;;;;;;;;25.60;38.30;;;;;;1550156;74;1130;-53
2023/07/20 02:32:20;;;;;;;;;;;25.60;38.40;;;;;;1551668;74;777;-56
2023/07/20 02:34:22;;;;;;;;;;;25.70;38.50;;;;;;1544494;75;680;-56
2023/07/20 02:36:24;;;;;;;;;;;25.70;38.60;;;;;;1558040;75;807;-56
2023/07/20 02:38:26;;;;;;;;;;;25.70;38.70;;;;;;1559588;75;735;-56
2023/07/20 02:40:27;;;;;;;;;;;25.70;39.00;;;;;;1542374;75;1079;-55
2023/07/20 02:42:29;;;;;;;;;;;25.60;39.30;;;;;;1543937;75;848;-55
2023/07/20 02:44:33;;;;;;;;;;;25.60;39.40;;;;;;1552600;74;1938;-53
2023/07/20 02:46:35;;;;;;;;;;;25.70;39.70;;;;;;1555766;75;755;-55
2023/07/20 02:48:37;;;;;;;;;;;25.70;39.80;;;;;;1551913;75;1093;-56
2023/07/20 02:50:39;;;;;;;;;;;25.60;39.80;;;;;;1556110;74;712;-56
2023/07/20 02:52:40;;;;;;;;;;;25.70;40.10;;;;;;1552627;74;730;-54
2023/07/20 02:54:42;;;;;;;;;;;25.60;40.20;;;;;;1552132;75;747;-55
2023/07/20 02:56:44;;;;;;;;;;;25.60;40.40;;;;;;1554843;75;764;-55
2023/07/20 02:58:46;;;;;;;;;;;25.60;40.50;;;;;;1546430;74;1155;-56
2023/07/20 03:00:48;;;;;;;;;;;25.60;40.70;;;;;;1549425;74;1276;-56
2023/07/20 03:02:52;;;;;;;;;;;25.60;40.90;;;;;;1545818;75;721;-56
2023/07/20 03:04:54;;;;;;;;;;;25.70;41.00;;;;;;1551999;75;1943;-55
2023/07/20 03:06:55;;;;;;;;;;;25.60;41.30;;;;;;1560082;75;1129;-56
2023/07/20 03:08:57;;;;;;;;;;;25.60;41.50;;;;;;1561649;74;1234;-54
2023/07/20 03:10:59;;;;;;;;;;;25.60;41.60;;;;;;1567407;74;782;-55
2023/07/20 03:13:01;;;;;;;;;;;25.60;41.80;;;;;;1569205;74;729;-56
2023/07/20 03:15:03;;;;;;;;;;;25.60;41.80;;;;;;1562332;74;1492;-55
2023/07/20 03:17:05;;;;;;;;;;;25.60;41.90;;;;;;1576070;74;735;-55
2023/07/20 03:19:07;;;;;;;;;;;25.60;42.00;;;;;;1562762;74;1153;-56
2023/07/20 03:21:11;;;;;;;;;;;25.60;42.10;;;;;;1570649;74;674;-55
2023/07/20 03:23:12;;;;;;;;;;;25.60;42.20;;;;;;1559716;74;1609;-54
2023/07/20 03:25:14;;;;;;;;;;;25.60;42.30;;;;;;1573669;74;1933;-53
2023/07/20 03:27:16;;;;;;;;;;;25.60;42.40;;;;;;1566216;74;779;-55
2023/07/20 03:29:19;;;;;;;;;;;25.60;42.40;;;;;;1565518;74;1558;-56
2023/07/20 03:31:20;;;;;;;;;;;25.60;42.40;;;;;;1572830;74;752;-56
2023/07/20 03:33:23;;;;;;;;;;;25.60;42.40;;;;;;1580566;74;730;-56
2023/07/20 03:35:25;;;;;;;;;;;25.60;42.50;;;;;;1562986;74;734;-55
2023/07/20 03:37:27;;;;;;;;;;;25.70;42.60;;;;;;1568858;74;722;-56
2023/07/20 03:39:28;;;;;;;;;;;25.60;42.70;;;;;;1569418;74;1163;-56
2023/07/20 03:41:30;;;;;;;;;;;25.60;42.60;;;;;;1560647;74;798;-57
2023/07/20 03:43:32;;;;;;;;;;;25.60;42.70;;;;;;1565929;74;1307;-55
2023/07/20 03:45:34;;;;;;;;;;;25.70;42.70;;;;;;1568812;74;1943;-55
2023/07/20 03:47:36;;;;;;;;;;;25.60;42.80;;;;;;1573069;74;709;-55
2023/07/20 03:49:38;;;;;;;;;;;25.60;42.80;;;;;;1564626;74;1182;-55
2023/07/20 03:51:40;;;;;;;;;;;25.60;42.80;;;;;;1557390;74;781;-56
2023/07/20 03:53:42;;;;;;;;;;;25.60;42.90;;;;;;1562026;74;819;-55
2023/07/20 03:55:50;;;;;;;;;;;25.60;42.80;;;;;;1557489;74;594;-55
2023/07/20 03:57:52;;;;;;;;;;;25.60;42.80;;;;;;1573571;74;1516;-54
2023/07/20 03:59:55;;;;;;;;;;;25.60;42.90;;;;;;1556089;74;1121;-56
2023/07/20 04:01:57;;;;;;;;;;;25.60;42.90;;;;;;1557697;74;731;-56
2023/07/20 04:03:59;;;;;;;;;;;25.60;42.80;;;;;;1559527;74;774;-56
2023/07/20 04:06:01;;;;;;;;;;;25.60;42.70;;;;;;1553388;74;1971;-55
2023/07/20 04:08:03;;;;;;;;;;;25.50;42.60;;;;;;1544791;74;1099;-56
2023/07/20 04:10:05;;;;;;;;;;;25.60;42.60;;;;;;1542905;75;1207;-55
2023/07/20 04:12:07;;;;;;;;;;;25.60;42.60;;;;;;1551970;75;1667;-56
2023/07/20 04:14:09;;;;;;;;;;;25.60;42.60;;;;;;1545100;75;676;-56
2023/07/20 04:16:11;;;;;;;;;;;25.60;42.70;;;;;;1556146;75;730;-55
2023/07/20 04:18:13;;;;;;;;;;;25.60;42.70;;;;;;1549698;75;793;-54
2023/07/20 04:20:14;;;;;;;;;;;25.50;42.70;;;;;;1569669;75;1157;-54
2023/07/20 04:22:16;;;;;;;;;;;25.60;42.70;;;;;;1543357;74;795;-56
2023/07/20 04:24:18;;;;;;;;;;;25.60;42.70;;;;;;1540332;75;727;-54
2023/07/20 04:26:20;;;;;;;;;;;25.70;42.80;;;;;;1558666;74;1952;-56
2023/07/20 04:28:22;;;;;;;;;;;25.50;42.80;;;;;;1559407;74;731;-57
2023/07/20 04:30:24;;;;;;;;;;;25.50;42.90;;;;;;1554889;75;1151;-55
2023/07/20 04:32:26;;;;;;;;;;;25.60;43.00;;;;;;1554599;75;756;-55
2023/07/20 04:34:28;;;;;;;;;;;25.60;43.10;;;;;;1558293;75;782;-56
2023/07/20 04:36:30;;;;;;;;;;;25.50;43.10;;;;;;1556553;74;743;-55
2023/07/20 04:38:32;;;;;;;;;;;25.60;43.10;;;;;;1546417;75;1527;-56
2023/07/20 04:40:33;;;;;;;;;;;25.60;43.10;;;;;;1548753;75;1087;-56
2023/07/20 04:42:35;;;;;;;;;;;25.60;43.10;;;;;;1555005;75;704;-56
2023/07/20 04:44:37;;;;;;;;;;;25.50;43.20;;;;;;1548336;75;775;-55
2023/07/20 04:46:40;;;;;;;;;;;25.60;43.30;;;;;;1541014;75;1943;-55
2023/07/20 04:48:42;;;;;;;;;;;25.60;43.30;;;;;;1555669;75;1088;-56
2023/07/20 04:50:47;;;;;;;;;;;25.50;43.40;;;;;;1561906;74;775;-56
2023/07/20 04:52:49;;;;;;;;;;;25.60;43.50;;;;;;1551960;74;1535;-55
2023/07/20 04:54:51;;;;;;;;;;;25.60;43.50;;;;;;1552925;74;793;-55
2023/07/20 04:56:53;;;;;;;;;;;25.60;43.50;;;;;;1556131;75;722;-56
2023/07/20 04:58:55;;;;;;;;;;;25.50;43.60;;;;;;1555315;75;1160;-56
2023/07/20 05:00:57;;;;;;;;;;;25.60;43.60;;;;;;1553435;75;742;-56
2023/07/20 05:02:59;;;;;;;;;;;25.50;43.70;;;;;;1550715;75;681;-57
2023/07/20 05:05:01;;;;;;;;;;;25.60;43.60;;;;;;1553540;75;1934;-56
2023/07/20 05:07:03;;;;;;;;;;;25.60;43.80;;;;;;1550427;74;1555;-56
2023/07/20 05:09:06;;;;;;;;;;;25.50;43.70;;;;;;1549685;75;1280;-56
2023/07/20 05:11:08;;;;;;;;;;;25.60;43.70;;;;;;1546828;75;720;-56
2023/07/20 05:13:10;;;;;;;;;;;25.60;43.70;;;;;;1543731;75;788;-56
2023/07/20 05:15:12;;;;;;;;;;;25.50;43.70;;;;;;1538168;75;729;-56
2023/07/20 05:17:14;;;;;;;;;;;25.50;43.70;;;;;;1552438;75;766;-55
2023/07/20 05:19:16;;;;;;;;;;;25.50;43.70;;;;;;1555072;75;1129;-54
2023/07/20 05:21:17;;;;;;;;;;;25.50;43.80;;;;;;1556569;75;1612;-55
2023/07/20 05:23:19;;;;;;;;;;;25.60;43.90;;;;;;1543994;75;792;-56
2023/07/20 05:25:22;;;;;;;;;;;25.50;44.00;;;;;;1555112;75;1934;-56
2023/07/20 05:27:24;;;;;;;;;;;25.50;44.00;;;;;;1550455;75;701;-53
2023/07/20 05:29:26;;;;;;;;;;;25.60;44.00;;;;;;1550553;75;1168;-56
2023/07/20 05:31:30;;;;;;;;;;;25.60;43.90;;;;;;1547398;75;734;-56
2023/07/20 05:33:31;;;;;;;;;;;25.60;43.90;;;;;;1553664;75;1664;-56
2023/07/20 05:35:33;;;;;;;;;;;25.50;44.00;;;;;;1553335;75;1315;-54
2023/07/20 05:37:35;;;;;;;;;;;25.60;44.10;;;;;;1543652;75;689;-53
2023/07/20 05:39:37;;;;;;;;;;;25.60;44.20;;;;;;1556980;75;1178;-55
2023/07/20 05:41:39;;;;;;;;;;;25.50;44.30;;;;;;1538607;75;740;-54
2023/07/20 05:43:42;;;;;;;;;;;25.50;44.30;;;;;;1554164;75;764;-54
2023/07/20 05:45:45;;;;;;;;;;;25.60;44.30;;;;;;1544388;75;1928;-56
2023/07/20 05:47:46;;;;;;;;;;;25.60;44.40;;;;;;1545527;75;953;-56
2023/07/20 05:49:48;;;;;;;;;;;25.60;44.50;;;;;;1550646;75;1556;-56
2023/07/20 05:51:50;;;;;;;;;;;25.60;44.30;;;;;;1558466;75;763;-56
2023/07/20 05:53:52;;;;;;;;;;;25.60;44.30;;;;;;1536615;75;693;-54
2023/07/20 05:55:54;;;;;;;;;;;25.60;44.10;;;;;;1553587;75;775;-55
2023/07/20 05:57:56;;;;;;;;;;;25.60;43.90;;;;;;1553016;75;755;-56
2023/07/20 05:59:58;;;;;;;;;;;25.60;43.90;;;;;;1541953;75;1157;-56
2023/07/20 06:02:00;;;;;;;;;;;25.60;43.80;;;;;;1548595;75;707;-56
2023/07/20 06:04:03;;;;;;;;;;;25.70;43.60;;;;;;1558487;75;1587;-56
2023/07/20 06:06:06;;;;;;;;;;;25.60;43.20;;;;;;1543351;75;1913;-56
2023/07/20 06:08:08;;;;;;;;;;;25.60;43.00;;;;;;1550584;75;771;-56
2023/07/20 06:10:10;;;;;;;;;;;25.60;42.80;;;;;;1547948;75;1093;-56
2023/07/20 06:12:12;;;;;;;;;;;25.60;42.60;;;;;;1551725;74;718;-55
2023/07/20 06:14:15;;;;;;;;;;;25.60;42.40;;;;;;1547034;74;753;-56
2023/07/20 06:16:16;;;;;;;;;;;25.60;42.30;;;;;;1553310;75;750;-56
2023/07/20 06:18:20;;;;;;;;;;;25.60;42.10;;;;;;1549359;75;1394;-56
2023/07/20 06:20:22;;;;;;;;;;;25.60;42.00;;;;;;1563379;74;2022;-56
2023/07/20 06:22:24;;;;;;;;;;;25.50;41.80;;;;;;1549967;75;738;-57
2023/07/20 06:24:26;;;;;;;;;;;25.50;41.60;;;;;;1560830;75;762;-55
2023/07/20 06:26:29;;;;;;;;;;;25.60;41.40;;;;;;1544901;75;1906;-57
2023/07/20 06:28:32;;;;;;;;;;;25.60;41.20;;;;;;1557407;74;696;-55
2023/07/20 06:30:34;;;;;;;;;;;25.50;41.00;;;;;;1555747;75;1181;-56
2023/07/20 06:32:36;;;;;;;;;;;25.60;40.90;;;;;;1561827;74;1366;-56
2023/07/20 06:34:38;;;;;;;;;;;25.50;40.80;;;;;;1559490;75;709;-54
2023/07/20 06:36:40;;;;;;;;;;;25.60;40.90;;;;;;1553948;75;630;-53
2023/07/20 06:38:42;;;;;;;;;;;25.50;40.80;;;;;;1549195;75;1197;-55
2023/07/20 06:40:44;;;;;;;;;;;25.50;40.70;;;;;;1544713;74;767;-56
2023/07/20 06:42:46;;;;;;;;;;;25.50;40.40;;;;;;1552132;74;722;-56
2023/07/20 06:44:47;;;;;;;;;;;25.50;40.00;;;;;;1556141;74;793;-55
2023/07/20 06:46:49;;;;;;;;;;;25.50;39.80;;;;;;1553163;75;1919;-56
2023/07/20 06:48:51;;;;;;;;;;;25.50;39.70;;;;;;1545149;75;1156;-56
2023/07/20 06:50:54;;;;;;;;;;;25.50;39.50;;;;;;1557009;75;830;-56
2023/07/20 06:52:56;;;;;;;;;;;25.50;39.20;;;;;;1558879;75;1041;-56
2023/07/20 06:54:57;;;;;;;;;;;25.50;39.00;;;;;;1562292;75;728;-55
2023/07/20 06:56:59;;;;;;;;;;;25.50;38.90;;;;;;1549954;75;776;-55
2023/07/20 06:59:02;;;;;;;;;;;25.50;38.60;;;;;;1554869;74;1114;-55
2023/07/20 07:01:08;;;;;;;;;;;25.50;38.50;;;;;;1556274;75;781;-56
2023/07/20 07:03:10;;;;;;;;;;;25.50;38.50;;;;;;1558475;75;762;-55
2023/07/20 07:05:14;;;;;;;;;;;25.50;38.40;;;;;;1555559;75;785;-54
2023/07/20 07:07:15;;;;;;;;;;;25.50;38.40;;;;;;1542009;75;1916;-56
2023/07/20 07:09:18;;;;;;;;;;;25.50;38.30;;;;;;1558899;75;1159;-56
2023/07/20 07:11:21;;;;;;;;;;;25.50;38.40;;;;;;1550850;75;716;-56
2023/07/20 07:13:23;;;;;;;;;;;25.50;38.30;;;;;;1558207;74;1565;-54
2023/07/20 07:15:25;;;;;;;;;;;25.40;38.40;;;;;;1563587;75;799;-55
2023/07/20 07:17:27;;;;;;;;;;;25.50;38.40;;;;;;1560031;75;753;-55
2023/07/20 07:19:28;;;;;;;;;;;25.50;38.40;;;;;;1548085;75;1180;-55
2023/07/20 07:21:30;;;;;;;;;;;25.50;38.30;;;;;;1554526;75;709;-54
2023/07/20 07:23:32;;;;;;;;;;;25.50;38.30;;;;;;1551105;75;802;-55
2023/07/20 07:25:34;;;;;;;;;;;25.50;38.40;;;;;;1551434;74;757;-56
2023/07/20 07:27:36;;;;;;;;;;;25.50;38.20;;;;;;1551994;75;1920;-55
2023/07/20 07:29:38;;;;;;;;;;;25.50;38.00;;;;;;1559972;75;1104;-55
2023/07/20 07:31:40;;;;;;;;;;;25.50;37.90;;;;;;1549379;75;760;-54
2023/07/20 07:33:42;;;;;;;;;;;25.40;37.80;;;;;;1539118;75;620;-55
2023/07/20 07:35:44;;;;;;;;;;;25.50;37.80;;;;;;1552782;75;804;-55
2023/07/20 07:37:46;;;;;;;;;;;25.50;37.70;;;;;;1555984;75;694;-55
2023/07/20 07:39:48;;;;;;;;;;;25.50;37.70;;;;;;1541353;75;1179;-56
2023/07/20 07:41:51;;;;;;;;;;;25.40;37.60;;;;;;1552664;75;1533;-56
2023/07/20 07:43:53;;;;;;;;;;;25.50;37.30;;;;;;1559685;74;715;-55
2023/07/20 07:45:55;;;;;;;;;;;25.50;37.00;;;;;;1554963;75;803;-56
2023/07/20 07:47:57;;;;;;;;;;;25.40;36.60;;;;;;1541464;75;1904;-55
2023/07/20 07:49:59;;;;;;;;;;;25.40;36.50;;;;;;1549326;75;1145;-55
2023/07/20 07:52:06;;;;;;;;;;;25.50;36.40;;;;;;1545434;75;761;-56
2023/07/20 07:54:05;;;;;;;;;;;25.40;36.60;;;;;;1553098;75;1184;-56
2023/07/20 07:56:09;;;;;;;;;;;25.40;36.70;;;;;;1551954;74;1517;-55
2023/07/20 07:58:11;;;;;;;;;;;25.40;36.70;;;;;;1564920;75;783;-56
2023/07/20 08:00:14;;;;;;;;;;;25.40;36.80;;;;;;1551805;75;1133;-57
2023/07/20 08:02:16;;;;;;;;;;;25.40;36.80;;;;;;1546287;75;773;-56
2023/07/20 08:04:18;;;;;;;;;;;25.50;36.80;;;;;;1549175;75;768;-55
2023/07/20 08:06:20;;;;;;;;;;;25.40;36.80;;;;;;1547573;75;1929;-55
2023/07/20 08:08:22;;;;;;;;;;;25.40;36.90;;;;;;1551212;74;729;-56
2023/07/20 08:10:24;;;;;;;;;;;25.50;37.00;;;;;;1557909;75;1608;-56
2023/07/20 08:12:26;;;;;;;;;;;25.50;36.90;;;;;;1563060;75;728;-55
2023/07/20 08:14:28;;;;;;;;;;;25.40;36.90;;;;;;1549813;75;648;-55
2023/07/20 08:16:29;;;;;;;;;;;25.50;37.00;;;;;;1560241;75;795;-55
2023/07/20 08:18:31;;;;;;;;;;;25.50;37.10;;;;;;1557234;75;705;-54
2023/07/20 08:20:35;;;;;;;;;;;25.50;37.20;;;;;;1550687;75;1201;-56
2023/07/20 08:22:37;;;;;;;;;;;25.50;37.10;;;;;;1561545;74;1470;-56
2023/07/20 08:24:42;;;;;;;;;;;25.50;37.10;;;;;;1551348;75;1525;-54
2023/07/20 08:26:44;;;;;;;;;;;25.50;37.10;;;;;;1558178;74;1924;-55
2023/07/20 08:28:48;;;;;;;;;;;25.40;37.00;;;;;;1561674;74;1102;-54
2023/07/20 08:30:49;;;;;;;;;;;25.50;37.00;;;;;;1558107;75;1445;-54
2023/07/20 08:32:51;;;;;;;;;;;25.50;37.00;;;;;;1562641;75;600;-55
2023/07/20 08:34:53;;;;;;;;;;;25.50;37.00;;;;;;1561457;75;752;-55
2023/07/20 08:36:56;;;;;;;;;;;25.50;37.10;;;;;;1571115;75;895;-56
2023/07/20 08:38:57;;;;;;;;;;;25.50;37.10;;;;;;1564294;74;1525;-55
2023/07/20 08:41:01;;;;;;;;;;;25.50;37.10;;;;;;1558753;75;774;-55
2023/07/20 08:43:03;;;;;;;;;;;25.50;37.10;;;;;;1564466;75;724;-56
2023/07/20 08:45:06;;;;;;;;;;;25.40;37.10;;;;;;1563952;75;797;-55
2023/07/20 08:47:08;;;;;;;;;;;25.50;36.90;;;;;;1559313;75;1945;-55
2023/07/20 08:49:11;;;;;;;;;;;25.50;36.30;;;;;;1553129;74;1157;-55
2023/07/20 08:51:13;;;;;;;;;;;25.50;35.90;;;;;;1560940;74;795;-56
2023/07/20 08:53:15;;;;;;;;;;;25.50;36.20;;;;;;1556559;75;1428;-55
2023/07/20 08:55:17;;;;;;;;;;;25.50;35.90;;;;;;1560116;75;783;-55
2023/07/20 08:57:18;;;;;;;;;;;25.60;35.70;;;;;;1556463;75;772;-54
2023/07/20 08:59:21;;;;;;;;;;;25.60;35.60;;;;;;1556158;75;1149;-56
2023/07/20 09:01:23;;;;;;;;;;;25.60;35.50;;;;;;1549684;74;746;-53
2023/07/20 09:03:25;;;;;;;;;;;25.60;35.50;;;;;;1558280;75;792;-56
2023/07/20 09:05:27;;;;;;;;;;;25.60;35.70;;;;;;1563074;74;770;-56
2023/07/20 09:07:28;;;;;;;;;;;25.60;35.60;;;;;;1558597;75;1971;-53
2023/07/20 09:09:30;;;;;;;;;;;25.50;36.10;;;;;;1553845;75;1155;-56
2023/07/20 09:11:32;;;;;;;;;;;25.50;36.00;;;;;;1558154;75;1114;-56
2023/07/20 09:13:37;;;;;;;;;;;25.50;35.70;;;;;;1551070;75;756;-56
2023/07/20 09:15:39;;;;;;;;;;;25.60;35.50;;;;;;1543874;75;785;-56
2023/07/20 09:17:42;;;;;;;;;;;25.50;35.10;;;;;;1551211;74;836;-56
2023/07/20 09:19:48;;;;;;;;;;;25.60;35.00;;;;;;1554871;75;1851;-52
2023/07/20 09:21:50;;;;;;;;;;;25.50;35.30;;;;;;1551633;75;802;-53
2023/07/20 09:23:53;;;;;;;;;;;25.50;35.00;;;;;;1554390;75;754;-55
2023/07/20 09:25:55;;;;;;;;;;;25.50;35.10;;;;;;1529663;76;1239;-55
2023/07/20 09:27:57;;;;;;;;;;;25.50;34.70;;;;;;1549652;75;1950;-53
2023/07/20 09:29:58;;;;;;;;;;;25.40;34.90;;;;;;1548215;75;1156;-54
2023/07/20 09:32:05;;;;;;;;;;;25.40;34.60;;;;;;1550825;74;779;-54
2023/07/20 09:34:04;;;;;;;;;;;25.50;34.50;;;;;;1550403;75;1523;-54
2023/07/20 09:36:06;;;;;;;;;;;25.40;34.30;;;;;;1548854;75;684;-56
2023/07/20 09:38:09;;;;;;;;;;;25.50;34.10;;;;;;1549381;75;723;-56
2023/07/20 09:40:11;;;;;;;;;;;25.50;34.00;;;;;;1546811;75;1135;-54
2023/07/20 09:42:16;;;;;;;;;;;25.50;34.20;;;;;;1551575;75;715;-56
2023/07/20 09:44:18;;;;;;;;;;;25.50;35.00;;;;;;1543380;75;759;-55
2023/07/20 09:46:20;;;;;;;;;;;25.50;34.80;;;;;;1552055;75;847;-55
2023/07/20 09:48:23;;;;;;;;;;;25.60;34.70;;;;;;1552073;75;1931;-56
2023/07/20 09:50:25;;;;;;;;;;;25.60;34.60;;;;;;1534697;76;1133;-55
2023/07/20 09:52:27;;;;;;;;;;;25.60;34.10;;;;;;1540597;75;781;-54
2023/07/20 09:54:29;;;;;;;;;;;25.60;34.50;;;;;;1546453;75;773;-54
2023/07/20 09:56:31;;;;;;;;;;;25.60;34.20;;;;;;1546703;75;608;-55
2023/07/20 09:58:32;;;;;;;;;;;25.60;34.20;;;;;;1547491;74;756;-55
2023/07/20 10:00:35;;;;;;;;;;;25.60;34.20;;;;;;1554549;75;1184;-55
2023/07/20 10:02:39;;;;;;;;;;;25.60;34.00;;;;;;1542701;74;1582;-55
2023/07/20 10:04:41;;;;;;;;;;;25.60;34.30;;;;;;1538339;75;750;-55
2023/07/20 10:06:43;;;;;;;;;;;25.60;34.30;;;;;;1546342;75;677;-55
2023/07/20 10:08:45;;;;;;;;;;;25.50;34.50;;;;;;1559667;75;1959;-55
2023/07/20 10:10:47;;;;;;;;;;;25.50;34.40;;;;;;1543480;75;595;-54
2023/07/20 10:12:49;;;;;;;;;;;25.50;34.10;;;;;;1555311;76;1121;-53
2023/07/20 10:14:52;;;;;;;;;;;25.60;34.20;;;;;;1560460;74;795;-52
2023/07/20 10:16:55;;;;;;;;;;;25.60;33.70;;;;;;1553531;74;1775;-55
2023/07/20 10:19:01;;;;;;;;;;;25.60;33.90;;;;;;1550085;76;1217;-53
2023/07/20 10:21:03;;;;;;;;;;;25.60;33.80;;;;;;1554411;75;944;-56
2023/07/20 10:23:06;;;;;;;;;;;25.60;34.00;;;;;;1560227;76;743;-55
2023/07/20 10:25:08;;;;;;;;;;;25.60;34.20;;;;;;1556878;76;763;-54
2023/07/20 10:27:10;;;;;;;;;;;25.50;34.40;;;;;;1550899;76;1905;-56
2023/07/20 10:29:12;;;;;;;;;;;25.50;34.60;;;;;;1554934;74;1224;-55
2023/07/20 10:31:15;;;;;;;;;;;25.60;34.70;;;;;;1555704;76;1561;-55
2023/07/20 10:33:17;;;;;;;;;;;25.60;34.60;;;;;;1555296;75;797;-56
2023/07/20 10:35:19;;;;;;;;;;;25.50;34.50;;;;;;1551006;75;759;-55
2023/07/20 10:37:39;;;;;;;;;;;25.60;34.70;;;;;;1551418;75;679;-55
2023/07/20 10:39:41;;;;;;;;;;;25.60;34.80;;;;;;1548045;76;1193;-55
2023/07/20 10:41:43;;;;;;;;;;;25.50;34.90;;;;;;1555998;76;770;-54
2023/07/20 10:43:45;;;;;;;;;;;25.60;34.80;;;;;;1549536;74;779;-56
2023/07/20 10:45:52;;;;;;;;;;;25.50;34.80;;;;;;1556048;74;1478;-56
2023/07/20 10:47:53;;;;;;;;;;;25.60;34.80;;;;;;1549114;74;1922;-55
2023/07/20 10:49:58;;;;;;;;;;;25.50;34.60;;;;;;1528612;76;1192;-51
2023/07/20 10:52:01;;;;;;;;;;;25.50;34.50;;;;;;1508356;78;737;-56
2023/07/20 10:54:03;;;;;;;;;;;25.60;34.60;;;;;;1500108;78;739;-54
2023/07/20 10:56:06;;;;;;;;;;;25.60;34.60;;;;;;1518009;78;753;-55
2023/07/20 10:58:09;;;;;;;;;;;25.50;34.60;;;;;;1508608;77;1740;-55
2023/07/20 11:00:12;;;;;;;;;;;25.50;34.80;;;;;;1500532;78;1088;-55
2023/07/20 11:02:16;;;;;;;;;;;25.60;35.00;;;;;;1490016;79;758;-56
2023/07/20 11:04:22;;;;;;;;;;;25.60;34.90;;;;;;1557682;75;1567;-55
2023/07/20 11:06:26;;;;;;;;;;;25.60;34.70;;;;;;1557720;75;1595;-55
2023/07/20 11:08:45;;;;;;;;;;;25.60;34.80;;;;;;1558107;76;1940;-56
2023/07/20 11:10:44;;;;;;;;;;;25.50;35.10;;;;;;1556715;76;1252;-56
2023/07/20 11:13:06;;;;;;;;;;;25.50;34.90;;;;;;1556873;74;1562;-56
2023/07/20 11:15:08;;;;;;;;;;;25.50;35.20;;;;;;1552458;75;768;-55
2023/07/20 11:17:20;;;;;;;;;;;25.50;35.10;;;;;;1559598;74;703;-54
2023/07/20 11:19:20;;;;;;;;;;;25.50;35.30;;;;;;1548814;74;1965;-56
2023/07/20 11:21:21;;;;;;;;;;;25.50;35.80;;;;;;1548497;75;753;-56
2023/07/20 11:23:23;;;;;;;;;;;25.50;35.60;;;;;;1547940;75;669;-55
2023/07/20 11:25:26;;;;;;;;;;;25.50;35.20;;;;;;1548267;75;773;-52
2023/07/20 11:27:28;;;;;;;;;;;25.60;35.40;;;;;;1553591;75;1907;-55
2023/07/20 11:29:30;;;;;;;;;;;25.50;35.30;;;;;;1549900;75;1153;-55
2023/07/20 11:31:33;;;;;;;;;;;25.50;35.00;;;;;;1541179;75;820;-54
2023/07/20 11:33:35;;;;;;;;;;;25.60;35.10;;;;;;1549455;75;1869;-54
2023/07/20 11:35:39;;;;;;;;;;;25.50;35.20;;;;;;1541773;75;859;-54
2023/07/20 11:37:41;;;;;;;;;;;25.60;35.20;;;;;;1538198;75;1583;-54
2023/07/20 11:39:43;;;;;;;;;;;25.50;35.20;;;;;;1544409;75;1197;-56
2023/07/20 11:41:46;;;;;;;;;;;25.50;35.20;;;;;;1544522;75;1282;-56
2023/07/20 11:43:48;;;;;;;;;;;25.50;35.30;;;;;;1559952;75;1850;-56
2023/07/20 11:45:50;;;;;;;;;;;25.50;34.90;;;;;;1543184;75;704;-54
2023/07/20 11:47:52;;;;;;;;;;;25.50;35.00;;;;;;1553042;75;1934;-54
2023/07/20 11:49:54;;;;;;;;;;;25.50;34.80;;;;;;1551507;75;1178;-56
2023/07/20 11:51:56;;;;;;;;;;;25.50;35.20;;;;;;1550658;75;868;-57
2023/07/20 11:53:58;;;;;;;;;;;25.50;35.60;;;;;;1521120;76;836;-56
2023/07/20 11:56:00;;;;;;;;;;;25.50;35.50;;;;;;1560128;75;1392;-55
2023/07/20 11:58:05;;;;;;;;;;;25.50;35.70;;;;;;1551771;74;705;-54
2023/07/20 12:00:11;;;;;;;;;;;25.50;35.60;;;;;;1540606;75;1092;-56
2023/07/20 12:02:13;;;;;;;;;;;25.50;35.40;;;;;;1544276;75;739;-55
2023/07/20 12:04:15;;;;;;;;;;;25.50;35.30;;;;;;1543344;75;762;-54
2023/07/20 12:06:16;;;;;;;;;;;25.60;35.30;;;;;;1544995;74;684;-54
2023/07/20 12:08:18;;;;;;;;;;;25.60;35.30;;;;;;1557727;74;1940;-55
2023/07/20 12:10:26;;;;;;;;;;;25.60;35.60;;;;;;1555520;75;1692;-54